Time;durP1;ratioP1;P1;durP2;ratioP2;P2;SDS_P1;SDS_P2;PMS_P1;PMS_P2;Temp;Humidity;BMP_temperature;BMP_pressure;BME280_temperature;BME280_humidity;BME280_pressure;Samples;Min_cycle;Max_cycle;Signal;HPM_P1;HPM_P2
2021/01/03 06:02:53;;;;;;;22.90;10.60;;;0.50;97.30;;;;;;4941054;23;20554;-72
2021/01/03 06:05:24;;;;;;;18.53;10.50;;;0.50;97.30;;;;;;4915726;29;20420;-72
2021/01/03 06:08:17;;;;;;;24.10;11.47;;;0.50;97.30;;;;;;4915539;28;20193;-72
2021/01/03 06:10:43;;;;;;;24.87;10.57;;;0.50;97.30;;;;;;4912522;29;20850;-72
2021/01/03 06:13:11;;;;;;;16.47;10.50;;;0.50;97.30;;;;;;4897127;29;20509;-71
2021/01/03 06:15:52;;;;;;;20.93;10.77;;;0.50;97.30;;;;;;4896901;29;20414;-71
2021/01/03 06:18:40;;;;;;;21.37;11.10;;;0.40;97.30;;;;;;4898304;29;20421;-71
2021/01/03 06:21:16;;;;;;;23.30;11.07;;;0.40;97.30;;;;;;4898145;29;20507;-71
2021/01/03 06:23:51;;;;;;;28.93;11.67;;;0.40;97.30;;;;;;4900111;29;20415;-71
2021/01/03 06:26:29;;;;;;;21.43;10.63;;;0.40;97.30;;;;;;4901772;29;20802;-73
2021/01/03 06:28:56;;;;;;;21.33;10.50;;;0.40;97.30;;;;;;4900252;29;20453;-72
2021/01/03 06:31:42;;;;;;;19.67;9.47;;;0.40;97.30;;;;;;4901607;29;20449;-73
2021/01/03 06:34:28;;;;;;;23.07;10.80;;;0.40;97.30;;;;;;4901175;29;20773;-72
2021/01/03 06:37:06;;;;;;;17.00;10.43;;;0.40;97.30;;;;;;4899834;29;20421;-72
2021/01/03 06:39:44;;;;;;;19.60;9.80;;;0.40;97.30;;;;;;4899807;29;20501;-72
2021/01/03 06:42:56;;;;;;;23.40;10.53;;;0.40;97.30;;;;;;4901179;29;20441;-71
2021/01/03 06:46:19;;;;;;;24.57;10.70;;;0.40;97.30;;;;;;4880247;29;20508;-72
2021/01/03 06:48:56;;;;;;;21.13;8.87;;;0.40;97.30;;;;;;4880512;29;20814;-73
2021/01/03 06:52:14;;;;;;;17.70;9.70;;;0.40;97.30;;;;;;4864733;29;20450;-71
2021/01/03 06:54:52;;;;;;;17.40;9.03;;;0.40;97.30;;;;;;4885693;29;20508;-72
2021/01/03 06:57:47;;;;;;;18.53;9.40;;;0.40;97.30;;;;;;4899507;29;20748;-73
2021/01/03 07:00:21;;;;;;;18.47;9.63;;;0.50;97.30;;;;;;4864352;29;20411;-73
2021/01/03 07:02:51;;;;;;;20.00;9.80;;;0.40;97.30;;;;;;4881573;29;20433;-71
2021/01/03 07:05:17;;;;;;;22.50;11.03;;;0.50;97.30;;;;;;4885791;29;20995;-72
2021/01/03 07:08:09;;;;;;;20.03;10.10;;;0.50;97.30;;;;;;4900554;29;20848;-72
2021/01/03 07:10:43;;;;;;;17.93;10.33;;;0.50;97.30;;;;;;4895078;29;20829;-72
2021/01/03 07:13:25;;;;;;;23.17;10.27;;;0.50;97.30;;;;;;4899194;29;20483;-72
2021/01/03 07:15:52;;;;;;;18.70;9.83;;;0.50;97.30;;;;;;4900170;29;20421;-73
2021/01/03 07:18:24;;;;;;;21.30;9.23;;;0.50;97.30;;;;;;4899470;29;20417;-72
2021/01/03 07:21:03;;;;;;;22.00;9.77;;;0.50;97.30;;;;;;4900702;29;20443;-71
2021/01/03 07:23:39;;;;;;;17.43;9.30;;;0.50;97.30;;;;;;4900606;29;20911;-72
2021/01/03 07:26:29;;;;;;;19.80;8.83;;;0.50;97.30;;;;;;4899435;29;20435;-72
2021/01/03 07:29:12;;;;;;;16.27;9.13;;;0.50;97.30;;;;;;4898809;29;20500;-71
2021/01/03 07:32:04;;;;;;;24.07;9.70;;;0.50;97.30;;;;;;4900211;29;20452;-71
2021/01/03 07:34:34;;;;;;;19.10;9.27;;;0.50;97.30;;;;;;4899421;29;21266;-72
2021/01/03 07:37:12;;;;;;;20.17;10.03;;;0.50;97.30;;;;;;4898855;29;20501;-73
2021/01/03 07:40:04;;;;;;;17.80;8.80;;;0.60;97.30;;;;;;4900365;29;20448;-71
2021/01/03 07:42:44;;;;;;;19.93;9.50;;;0.50;97.30;;;;;;4881531;29;20423;-70
2021/01/03 07:45:13;;;;;;;17.40;9.50;;;0.60;97.30;;;;;;4882364;29;20501;-71
2021/01/03 07:47:55;;;;;;;20.67;9.90;;;0.60;97.30;;;;;;4899895;29;20945;-71
2021/01/03 07:50:29;;;;;;;15.50;7.90;;;0.60;97.30;;;;;;4898822;29;20954;-71
2021/01/03 07:53:14;;;;;;;18.57;9.10;;;0.60;97.30;;;;;;4900048;29;20451;-72
2021/01/03 07:55:40;;;;;;;14.33;8.00;;;0.60;97.30;;;;;;4900235;29;20755;-71
2021/01/03 07:58:16;;;;;;;13.77;8.50;;;0.60;97.30;;;;;;4899834;29;20447;-71
2021/01/03 08:00:50;;;;;;;14.97;8.10;;;0.60;97.30;;;;;;4898872;29;20444;-72
2021/01/03 08:03:20;;;;;;;16.50;8.10;;;0.60;97.30;;;;;;4898722;29;21042;-71
2021/01/03 08:05:46;;;;;;;15.67;8.60;;;0.60;97.30;;;;;;4898943;29;20433;-71
2021/01/03 08:08:27;;;;;;;12.00;7.50;;;0.70;97.30;;;;;;4899598;29;20505;-71
2021/01/03 08:11:08;;;;;;;13.23;7.50;;;0.70;97.30;;;;;;4898403;29;20535;-72
2021/01/03 08:13:39;;;;;;;11.40;7.17;;;0.70;97.30;;;;;;4916581;29;20479;-71
2021/01/03 08:16:05;;;;;;;14.00;6.90;;;0.70;97.30;;;;;;4899565;29;20768;-70
2021/01/03 08:18:40;;;;;;;13.90;8.10;;;0.70;97.30;;;;;;4899699;29;20424;-71
2021/01/03 08:21:14;;;;;;;13.27;7.77;;;0.70;97.30;;;;;;4898456;29;20476;-71
2021/01/03 08:23:40;;;;;;;14.60;7.83;;;0.70;97.30;;;;;;4898162;29;20416;-71
2021/01/03 08:26:26;;;;;;;13.07;7.23;;;0.70;97.30;;;;;;4899560;29;20441;-70
2021/01/03 08:29:05;;;;;;;10.93;7.23;;;0.80;97.30;;;;;;4898242;29;20480;-72
2021/01/03 08:31:31;;;;;;;13.07;7.50;;;0.80;97.30;;;;;;4898074;29;20448;-70
2021/01/03 08:33:59;;;;;;;13.47;7.40;;;0.80;97.30;;;;;;4897976;29;20468;-70
2021/01/03 08:36:27;;;;;;;12.27;7.10;;;0.80;97.30;;;;;;4899532;29;20465;-70
2021/01/03 08:39:07;;;;;;;15.87;7.60;;;0.80;97.30;;;;;;4897745;29;20405;-71
2021/01/03 08:41:40;;;;;;;17.60;8.73;;;0.80;97.30;;;;;;4899313;29;20473;-70
2021/01/03 08:44:07;;;;;;;14.13;6.90;;;0.80;97.30;;;;;;4899037;29;20444;-71
2021/01/03 08:46:34;;;;;;;11.00;7.73;;;0.80;97.30;;;;;;4898974;29;20450;-70
2021/01/03 08:49:08;;;;;;;14.20;7.57;;;0.80;97.30;;;;;;4897652;29;20426;-70
2021/01/03 08:51:35;;;;;;;13.00;7.90;;;0.80;97.30;;;;;;4897606;29;20959;-71
2021/01/03 08:54:05;;;;;;;13.20;7.47;;;0.80;97.30;;;;;;4899076;29;20457;-71
2021/01/03 08:56:36;;;;;;;11.27;6.67;;;0.90;97.30;;;;;;4897794;29;20841;-71
2021/01/03 08:59:02;;;;;;;13.33;7.33;;;0.90;97.30;;;;;;4898910;29;20496;-71
2021/01/03 09:01:29;;;;;;;12.30;7.50;;;0.90;97.30;;;;;;4897447;29;20472;-71
2021/01/03 09:04:00;;;;;;;11.10;7.23;;;0.90;97.30;;;;;;4897350;29;20448;-70
2021/01/03 09:06:27;;;;;;;11.23;7.27;;;0.90;97.30;;;;;;4897694;29;20525;-71
2021/01/03 09:08:53;;;;;;;12.70;7.30;;;1.00;97.30;;;;;;4897339;29;20513;-70
2021/01/03 09:11:28;;;;;;;14.23;7.60;;;1.00;97.30;;;;;;4884458;29;20955;-71
2021/01/03 09:14:03;;;;;;;11.70;7.37;;;1.00;97.30;;;;;;4897170;29;20472;-70
2021/01/03 09:16:57;;;;;;;16.10;7.10;;;1.00;97.30;;;;;;4898750;29;20457;-71
2021/01/03 09:20:00;;;;;;;11.37;7.10;;;1.00;97.30;;;;;;4897401;29;20951;-71
2021/01/03 09:22:52;;;;;;;13.60;7.00;;;1.10;97.30;;;;;;4898445;29;20464;-71
2021/01/03 09:25:31;;;;;;;13.00;7.60;;;1.10;97.30;;;;;;4896744;29;20437;-71
2021/01/03 09:28:07;;;;;;;12.60;6.87;;;1.10;97.30;;;;;;4898316;29;20473;-71
2021/01/03 09:30:36;;;;;;;13.10;7.47;;;1.20;97.30;;;;;;4898255;29;20504;-71
2021/01/03 09:33:20;;;;;;;12.40;6.77;;;1.20;97.30;;;;;;4898021;29;20472;-71
2021/01/03 09:35:54;;;;;;;9.10;6.60;;;1.20;97.30;;;;;;4896806;29;20425;-71
2021/01/03 09:38:35;;;;;;;8.77;6.00;;;1.30;97.30;;;;;;4898063;29;20405;-71
2021/01/03 09:41:25;;;;;;;13.43;6.57;;;1.30;97.30;;;;;;4897521;29;20429;-71
2021/01/03 09:44:10;;;;;;;9.77;6.10;;;1.40;97.30;;;;;;4898033;29;20406;-71
2021/01/03 09:46:43;;;;;;;10.20;6.50;;;1.40;97.30;;;;;;4896813;29;20931;-71
2021/01/03 09:49:37;;;;;;;6.90;5.20;;;1.50;97.30;;;;;;4898131;29;20820;-73
2021/01/03 09:52:41;;;;;;;8.27;5.87;;;1.50;97.30;;;;;;4897590;29;20524;-72
2021/01/03 09:55:20;;;;;;;13.30;6.90;;;1.60;97.30;;;;;;4897697;29;20408;-71
2021/01/03 09:57:58;;;;;;;10.13;6.60;;;1.60;97.30;;;;;;4897853;29;20774;-71
2021/01/03 10:00:54;;;;;;;11.40;6.17;;;1.70;97.30;;;;;;4897970;29;20409;-71
2021/01/03 10:03:39;;;;;;;13.30;6.73;;;1.70;97.30;;;;;;4896839;29;20580;-71
2021/01/03 10:06:19;;;;;;;11.47;6.60;;;1.70;97.30;;;;;;4898113;29;20849;-71
2021/01/03 10:08:46;;;;;;;10.83;6.10;;;1.70;97.30;;;;;;4897132;29;20448;-70
2021/01/03 10:11:30;;;;;;;9.70;6.40;;;1.70;97.30;;;;;;4896513;29;21033;-71
2021/01/03 10:14:03;;;;;;;10.23;5.43;;;1.70;97.30;;;;;;4896644;29;20481;-71
2021/01/03 10:16:31;;;;;;;8.30;5.97;;;1.60;97.30;;;;;;4896528;29;20445;-71
2021/01/03 10:18:57;;;;;;;10.27;6.37;;;1.60;97.30;;;;;;4896492;29;20465;-71
2021/01/03 10:21:33;;;;;;;10.23;5.90;;;1.50;97.30;;;;;;4896975;29;20449;-71
2021/01/03 10:24:01;;;;;;;11.07;7.37;;;1.50;97.30;;;;;;4928337;29;20840;-71
2021/01/03 10:26:35;;;;;;;7.87;5.37;;;1.50;97.30;;;;;;4896543;29;20428;-71
2021/01/03 10:29:02;;;;;;;12.17;6.33;;;1.40;97.30;;;;;;4897834;29;20410;-71
2021/01/03 10:31:44;;;;;;;16.33;5.40;;;1.40;97.30;;;;;;4896435;29;20441;-71
2021/01/03 10:34:10;;;;;;;10.10;6.03;;;1.40;97.30;;;;;;4896489;29;20468;-71
2021/01/03 10:36:36;;;;;;;7.17;5.40;;;1.40;97.30;;;;;;4896674;29;20504;-71
2021/01/03 10:39:05;;;;;;;9.17;5.07;;;1.40;97.30;;;;;;4895934;29;20562;-71
2021/01/03 10:41:33;;;;;;;11.73;7.57;;;1.30;97.30;;;;;;4896347;29;20834;-71
2021/01/03 10:43:59;;;;;;;11.70;6.30;;;1.30;97.30;;;;;;4896300;29;20421;-71
2021/01/03 10:46:25;;;;;;;11.73;7.90;;;1.30;97.30;;;;;;4895662;29;20437;-72
2021/01/03 10:48:52;;;;;;;12.43;6.80;;;1.30;97.30;;;;;;4895566;29;20429;-72
2021/01/03 10:51:29;;;;;;;13.13;7.50;;;1.30;97.30;;;;;;4895762;29;20465;-72
2021/01/03 10:53:55;;;;;;;11.77;6.60;;;1.30;97.30;;;;;;4897336;29;20465;-72
2021/01/03 10:56:20;;;;;;;11.03;6.80;;;1.30;97.30;;;;;;4896511;29;20442;-72
2021/01/03 10:58:46;;;;;;;10.10;6.40;;;1.30;97.30;;;;;;4897308;29;20192;-71
2021/01/03 11:01:12;;;;;;;9.23;5.70;;;1.30;97.30;;;;;;4895869;29;20217;-72
2021/01/03 11:03:39;;;;;;;9.57;6.43;;;1.30;97.30;;;;;;4897601;29;20166;-71
2021/01/03 11:06:05;;;;;;;11.00;5.80;;;1.30;97.30;;;;;;4897405;29;20216;-71
2021/01/03 11:08:31;;;;;;;10.20;6.90;;;1.30;97.30;;;;;;4897616;29;20461;-71
2021/01/03 11:10:56;;;;;;;10.20;6.30;;;1.30;97.30;;;;;;4899257;29;20295;-71
2021/01/03 11:13:22;;;;;;;12.17;6.17;;;1.40;97.30;;;;;;4899312;29;20296;-70
2021/01/03 11:15:48;;;;;;;10.77;6.33;;;1.30;97.30;;;;;;4931125;29;20229;-71
2021/01/03 11:18:14;;;;;;;11.87;6.73;;;1.30;97.30;;;;;;4898965;29;20173;-71
2021/01/03 11:20:40;;;;;;;11.30;6.67;;;1.30;97.30;;;;;;4899183;29;20442;-71
2021/01/03 11:23:06;;;;;;;31.43;16.00;;;1.30;97.30;;;;;;4899165;29;20606;-71
2021/01/03 11:25:31;;;;;;;11.97;7.60;;;1.40;97.30;;;;;;4900599;29;20513;-73
2021/01/03 11:27:57;;;;;;;17.10;8.30;;;1.40;97.30;;;;;;4899176;29;20184;-72
2021/01/03 11:30:23;;;;;;;20.37;13.20;;;1.40;97.30;;;;;;4900470;29;20185;-71
2021/01/03 11:32:49;;;;;;;12.70;7.20;;;1.40;97.30;;;;;;4900240;29;20212;-72
2021/01/03 11:35:16;;;;;;;13.97;6.63;;;1.50;97.30;;;;;;4900401;29;20177;-73
2021/01/03 11:37:41;;;;;;;13.40;6.43;;;1.50;97.30;;;;;;4899195;29;20551;-73
2021/01/03 11:40:09;;;;;;;10.30;7.63;;;1.50;97.30;;;;;;4900257;29;20433;-72
2021/01/03 11:42:37;;;;;;;9.93;6.10;;;1.50;97.30;;;;;;4898968;29;20197;-72
2021/01/03 11:45:08;;;;;;;7.63;6.00;;;1.40;97.30;;;;;;4898892;29;20432;-73
2021/01/03 11:47:34;;;;;;;12.97;7.27;;;1.50;97.30;;;;;;4899851;29;20908;-73
2021/01/03 11:50:00;;;;;;;10.03;6.43;;;1.50;97.30;;;;;;4899104;29;20450;-73
2021/01/03 11:52:27;;;;;;;9.57;5.60;;;1.50;97.30;;;;;;4898874;29;20209;-74
2021/01/03 11:54:53;;;;;;;9.73;6.40;;;1.50;97.30;;;;;;4898125;29;20184;-73
2021/01/03 11:57:18;;;;;;;14.77;6.87;;;1.50;97.30;;;;;;4894237;29;20433;-73
2021/01/03 11:59:44;;;;;;;9.60;6.23;;;1.60;97.30;;;;;;4898894;29;20181;-73
2021/01/03 12:02:11;;;;;;;9.60;6.70;;;1.60;97.30;;;;;;4899660;29;20221;-74
2021/01/03 12:04:38;;;;;;;13.30;7.43;;;1.60;97.30;;;;;;4899070;29;20181;-74
2021/01/03 12:07:08;;;;;;;9.83;6.40;;;1.70;97.30;;;;;;4898761;29;20773;-73
2021/01/03 12:09:34;;;;;;;16.43;7.87;;;1.70;97.30;;;;;;4898676;29;20414;-74
2021/01/03 12:12:02;;;;;;;13.07;7.70;;;1.70;97.30;;;;;;4899536;29;21015;-74
2021/01/03 12:14:29;;;;;;;10.70;7.40;;;1.70;97.30;;;;;;4899662;29;20202;-75
2021/01/03 12:16:57;;;;;;;14.63;7.83;;;1.70;97.30;;;;;;4898426;29;20436;-75
2021/01/03 12:19:27;;;;;;;11.17;7.27;;;1.70;97.30;;;;;;4898335;29;20529;-76
2021/01/03 12:21:58;;;;;;;12.40;7.27;;;1.70;97.30;;;;;;4920612;29;20472;-75
2021/01/03 12:24:24;;;;;;;10.20;6.60;;;1.80;97.30;;;;;;4897976;29;20862;-75
2021/01/03 12:26:52;;;;;;;14.07;7.93;;;1.80;97.30;;;;;;4898018;29;20421;-76
2021/01/03 12:29:19;;;;;;;14.70;7.97;;;1.80;97.30;;;;;;4897683;29;20174;-76
2021/01/03 12:31:51;;;;;;;14.77;10.10;;;1.90;97.30;;;;;;4897628;29;20601;-76
2021/01/03 12:34:21;;;;;;;16.77;10.53;;;1.80;97.30;;;;;;4897777;29;20593;-76
2021/01/03 12:36:49;;;;;;;15.57;8.53;;;1.80;97.30;;;;;;4897836;29;20422;-76
2021/01/03 12:39:18;;;;;;;12.80;8.00;;;1.80;97.30;;;;;;4898216;29;20414;-76
2021/01/03 12:41:44;;;;;;;16.23;8.50;;;1.80;97.30;;;;;;4898056;29;20441;-76
2021/01/03 12:44:11;;;;;;;12.30;7.40;;;1.80;97.30;;;;;;4894896;29;20849;-75
2021/01/03 12:46:39;;;;;;;17.40;10.20;;;1.80;97.30;;;;;;4897665;29;20177;-76
2021/01/03 12:49:06;;;;;;;17.37;9.93;;;1.80;97.30;;;;;;4897609;29;20424;-76
2021/01/03 12:51:32;;;;;;;26.53;13.10;;;1.90;97.30;;;;;;4897707;29;20442;-76
2021/01/03 12:53:58;;;;;;;29.43;15.63;;;1.90;97.30;;;;;;4897847;29;20501;-77
2021/01/03 12:56:26;;;;;;;49.17;26.10;;;1.80;97.30;;;;;;4898923;29;20414;-76
2021/01/03 12:58:58;;;;;;;35.47;21.13;;;1.80;97.30;;;;;;4899068;29;20431;-76
2021/01/03 13:01:31;;;;;;;38.67;24.20;;;1.80;97.30;;;;;;4897771;29;20561;-75
2021/01/03 13:03:57;;;;;;;15.03;9.73;;;1.80;97.30;;;;;;4898897;29;20441;-75
2021/01/03 13:06:23;;;;;;;16.03;10.10;;;1.80;97.30;;;;;;4897096;29;20457;-74
2021/01/03 13:08:49;;;;;;;17.60;10.53;;;1.80;97.30;;;;;;4897588;29;20453;-75
2021/01/03 13:11:15;;;;;;;14.07;9.10;;;1.80;97.30;;;;;;4897392;29;21011;-74
2021/01/03 13:13:41;;;;;;;16.00;8.97;;;1.80;97.30;;;;;;4898203;29;20465;-75
2021/01/03 13:16:06;;;;;;;15.13;8.23;;;1.70;97.30;;;;;;4896995;29;20423;-73
2021/01/03 13:18:33;;;;;;;16.77;9.70;;;1.70;97.30;;;;;;4896894;29;20181;-74
2021/01/03 13:21:00;;;;;;;30.67;16.73;;;1.80;97.30;;;;;;4895368;29;20205;-73
2021/01/03 13:23:26;;;;;;;19.23;12.00;;;1.80;97.30;;;;;;4897555;29;20433;-74
2021/01/03 13:25:53;;;;;;;15.97;10.00;;;1.80;97.30;;;;;;4896998;29;20453;-74
2021/01/03 13:28:20;;;;;;;20.33;8.80;;;1.80;97.30;;;;;;4896892;29;20268;-74
2021/01/03 13:30:46;;;;;;;15.80;8.40;;;1.80;97.30;;;;;;4897283;29;20525;-74
2021/01/03 13:33:11;;;;;;;13.30;8.63;;;1.80;97.30;;;;;;4897041;29;20570;-74
2021/01/03 13:35:37;;;;;;;12.40;7.97;;;1.80;97.30;;;;;;4891032;29;20249;-74
2021/01/03 13:38:04;;;;;;;16.27;8.63;;;1.90;97.30;;;;;;4896609;29;20217;-74
2021/01/03 13:40:55;;;;;;;12.60;8.17;;;1.90;97.30;;;;;;4896628;29;20421;-74
2021/01/03 13:43:45;;;;;;;12.37;7.87;;;1.90;97.30;;;;;;4898363;29;20418;-75
2021/01/03 13:46:14;;;;;;;13.37;8.30;;;1.90;97.30;;;;;;4894584;29;20781;-75
2021/01/03 13:48:40;;;;;;;16.03;9.10;;;1.90;97.30;;;;;;4893919;29;20448;-75
2021/01/03 13:51:08;;;;;;;14.37;9.00;;;1.80;97.30;;;;;;4896765;29;20437;-75
2021/01/03 13:53:34;;;;;;;12.90;8.40;;;1.80;97.30;;;;;;4896886;29;20465;-74
2021/01/03 13:56:00;;;;;;;15.33;8.20;;;1.80;97.30;;;;;;4896163;29;20422;-75
2021/01/03 13:58:32;;;;;;;14.30;8.30;;;1.80;97.30;;;;;;4895474;29;20931;-76
2021/01/03 14:01:00;;;;;;;14.07;8.40;;;1.80;97.30;;;;;;4901730;29;20252;-76
2021/01/03 14:03:27;;;;;;;14.10;8.37;;;1.70;97.30;;;;;;4896121;29;20433;-76
2021/01/03 14:05:53;;;;;;;19.70;9.90;;;1.70;97.30;;;;;;4897145;29;20424;-75
2021/01/03 14:08:37;;;;;;;12.90;9.60;;;1.70;97.30;;;;;;4903648;29;20433;-76
2021/01/03 14:11:40;;;;;;;15.87;9.90;;;1.70;97.30;;;;;;4901360;29;20449;-78
2021/01/03 14:14:06;;;;;;;14.63;9.20;;;1.70;97.30;;;;;;4897698;29;20816;-78
2021/01/03 14:16:32;;;;;;;16.10;9.80;;;1.60;97.30;;;;;;4895622;29;20425;-77
2021/01/03 14:18:59;;;;;;;14.20;8.40;;;1.60;97.30;;;;;;4896132;29;20424;-77
2021/01/03 14:21:28;;;;;;;15.40;8.53;;;1.60;97.30;;;;;;4896281;29;20281;-77
2021/01/03 14:23:54;;;;;;;16.87;9.53;;;1.60;97.30;;;;;;4897878;29;20916;-76
2021/01/03 14:26:19;;;;;;;17.53;10.20;;;1.50;97.30;;;;;;4896933;29;20516;-76
2021/01/03 14:28:45;;;;;;;20.97;10.60;;;1.50;97.30;;;;;;4896562;29;20504;-78
2021/01/03 14:31:26;;;;;;;16.67;9.93;;;1.50;97.30;;;;;;4897170;29;20248;-76
2021/01/03 14:33:52;;;;;;;16.73;9.50;;;1.50;97.30;;;;;;4896354;29;20215;-76
2021/01/03 14:36:18;;;;;;;23.73;10.37;;;1.50;97.30;;;;;;4895931;29;20928;-77
2021/01/03 14:38:43;;;;;;;21.67;11.40;;;1.50;97.30;;;;;;4896481;29;20416;-76
2021/01/03 14:41:10;;;;;;;20.43;11.63;;;1.50;97.30;;;;;;4896672;29;20235;-75
2021/01/03 14:43:43;;;;;;;19.43;10.37;;;1.50;97.30;;;;;;4900174;29;20170;-76
2021/01/03 14:46:18;;;;;;;22.80;13.90;;;1.40;97.30;;;;;;4901789;29;20398;-76
2021/01/03 14:49:10;;;;;;;27.90;11.60;;;1.40;97.30;;;;;;4900069;29;20432;-75
2021/01/03 14:51:35;;;;;;;20.03;10.30;;;1.40;97.30;;;;;;4901509;29;20492;-75
2021/01/03 14:54:23;;;;;;;15.10;9.23;;;1.40;97.30;;;;;;4899834;29;20469;-76
2021/01/03 14:57:14;;;;;;;18.03;10.77;;;1.40;97.30;;;;;;4900899;29;20652;-75
2021/01/03 14:59:58;;;;;;;19.90;10.60;;;1.30;97.30;;;;;;4899787;29;20513;-75
2021/01/03 15:03:03;;;;;;;23.67;11.03;;;1.30;97.30;;;;;;4900779;29;20483;-75
2021/01/03 15:05:35;;;;;;;24.00;10.33;;;1.30;97.30;;;;;;4883959;29;20425;-75
2021/01/03 15:08:10;;;;;;;22.13;11.23;;;1.30;97.30;;;;;;4899685;29;20421;-74
2021/01/03 15:10:36;;;;;;;19.40;11.03;;;1.30;97.30;;;;;;4899544;29;20519;-75
2021/01/03 15:13:03;;;;;;;20.70;11.17;;;1.30;97.30;;;;;;4899468;29;20465;-74
2021/01/03 15:15:54;;;;;;;22.67;11.70;;;1.30;97.30;;;;;;4900707;29;20410;-75
2021/01/03 15:18:33;;;;;;;23.87;11.43;;;1.30;97.30;;;;;;4899212;29;20418;-75
2021/01/03 15:21:02;;;;;;;27.73;13.00;;;1.30;97.30;;;;;;4900535;29;20422;-75
2021/01/03 15:23:34;;;;;;;26.43;13.43;;;1.30;97.30;;;;;;4899223;29;21067;-75
2021/01/03 15:26:15;;;;;;;26.67;13.40;;;1.30;97.30;;;;;;4900510;29;20414;-74
2021/01/03 15:28:54;;;;;;;23.40;12.23;;;1.30;97.30;;;;;;4899373;29;20452;-75
2021/01/03 15:31:24;;;;;;;26.10;12.83;;;1.30;97.30;;;;;;4899351;29;20448;-75
2021/01/03 15:33:52;;;;;;;24.80;11.83;;;1.30;97.30;;;;;;4898857;29;20469;-74
2021/01/03 15:36:28;;;;;;;26.03;13.30;;;1.20;97.30;;;;;;4899290;29;20410;-74
2021/01/03 15:38:55;;;;;;;27.30;12.67;;;1.30;97.30;;;;;;4899000;29;20512;-74
2021/01/03 15:41:55;;;;;;;30.40;11.90;;;1.20;97.30;;;;;;4900511;29;20962;-75
2021/01/03 15:44:50;;;;;;;24.50;13.27;;;1.20;97.30;;;;;;4900439;29;20406;-74
2021/01/03 15:47:40;;;;;;;26.67;12.73;;;1.20;97.30;;;;;;4899138;29;20418;-74
2021/01/03 15:50:08;;;;;;;31.23;13.30;;;1.30;97.30;;;;;;4898645;29;20421;-74
2021/01/03 15:52:39;;;;;;;27.70;13.27;;;1.30;97.30;;;;;;4898846;29;21014;-74
2021/01/03 15:55:06;;;;;;;28.00;12.80;;;1.20;97.30;;;;;;4898206;29;20414;-74
2021/01/03 15:57:35;;;;;;;29.00;13.07;;;1.30;97.30;;;;;;4899001;29;20413;-74
2021/01/03 16:00:03;;;;;;;31.30;13.17;;;1.30;97.30;;;;;;4898455;29;21023;-74
2021/01/03 16:02:30;;;;;;;24.10;11.97;;;1.20;97.30;;;;;;4898734;29;20461;-75
2021/01/03 16:04:57;;;;;;;24.83;12.97;;;1.20;97.30;;;;;;4899505;29;20430;-75
2021/01/03 16:07:27;;;;;;;35.43;14.77;;;1.20;97.30;;;;;;4900918;29;20429;-74
2021/01/03 16:09:52;;;;;;;33.57;13.80;;;1.20;97.30;;;;;;4899877;29;20441;-74
2021/01/03 16:12:18;;;;;;;34.00;15.27;;;1.20;97.30;;;;;;4898986;29;20983;-74
2021/01/03 16:14:43;;;;;;;37.20;15.30;;;1.20;97.30;;;;;;4898301;29;20196;-74
2021/01/03 16:17:09;;;;;;;35.77;14.03;;;1.20;97.30;;;;;;4898504;29;20263;-74
2021/01/03 16:19:35;;;;;;;43.70;16.87;;;1.20;97.30;;;;;;4898204;29;20197;-75
2021/01/03 16:22:38;;;;;;;38.53;15.00;;;1.20;97.30;;;;;;4898578;29;20308;-74
2021/01/03 16:25:22;;;;;;;33.80;14.60;;;1.20;97.30;;;;;;4898401;29;20181;-74
2021/01/03 16:28:30;;;;;;;40.77;15.60;;;1.20;97.30;;;;;;4898723;29;20426;-74
2021/01/03 16:31:14;;;;;;;36.37;15.80;;;1.20;97.30;;;;;;4888954;29;20532;-74
2021/01/03 16:34:21;;;;;;;42.17;17.17;;;1.20;97.30;;;;;;4900788;29;20492;-74
2021/01/03 16:36:56;;;;;;;36.73;17.60;;;1.20;97.30;;;;;;4901911;29;20926;-75
2021/01/03 16:39:39;;;;;;;37.57;16.37;;;1.20;97.30;;;;;;4898396;29;20451;-77
2021/01/03 16:42:39;;;;;;;35.10;15.67;;;1.20;97.30;;;;;;4900442;29;20462;-74
2021/01/03 16:45:19;;;;;;;35.47;15.60;;;1.20;97.30;;;;;;4897717;29;20426;-74
2021/01/03 16:47:54;;;;;;;30.90;14.30;;;1.20;97.30;;;;;;4898133;29;20436;-75
2021/01/03 16:50:29;;;;;;;51.43;22.63;;;1.20;97.30;;;;;;4899124;29;20420;-73
2021/01/03 16:53:08;;;;;;;40.63;18.13;;;1.20;97.30;;;;;;4899346;29;20464;-73
2021/01/03 16:55:55;;;;;;;81.10;54.23;;;1.20;97.30;;;;;;4897837;29;20541;-72
2021/01/03 16:59:15;;;;;;;47.17;26.97;;;1.20;97.30;;;;;;4897774;29;20429;-72
2021/01/03 17:01:52;;;;;;;32.40;15.10;;;1.20;97.30;;;;;;4862064;29;20454;-71
2021/01/03 17:04:18;;;;;;;29.50;15.73;;;1.20;97.30;;;;;;4894052;29;20512;-73
2021/01/03 17:07:01;;;;;;;34.87;15.00;;;1.20;97.30;;;;;;4898305;29;20947;-72
2021/01/03 17:10:00;;;;;;;28.03;13.60;;;1.20;97.30;;;;;;4897357;29;20193;-71
2021/01/03 17:12:34;;;;;;;36.40;15.43;;;1.20;97.30;;;;;;4896706;29;20444;-71
2021/01/03 17:15:27;;;;;;;36.23;17.43;;;1.30;97.30;;;;;;4897493;29;20792;-72
2021/01/03 17:18:02;;;;;;;33.53;17.53;;;1.30;97.30;;;;;;4898410;29;20867;-74
2021/01/03 17:20:53;;;;;;;35.63;18.40;;;1.30;97.30;;;;;;4898967;29;20409;-74
2021/01/03 17:23:35;;;;;;;24.10;13.70;;;1.30;97.30;;;;;;4897096;29;20489;-73
2021/01/03 17:26:28;;;;;;;27.53;12.80;;;1.30;97.30;;;;;;4897550;29;20424;-73
2021/01/03 17:29:08;;;;;;;33.53;14.70;;;1.20;97.30;;;;;;4897370;29;20422;-73
2021/01/03 17:31:43;;;;;;;29.10;14.70;;;1.20;97.30;;;;;;4897613;29;20445;-73
2021/01/03 17:34:12;;;;;;;30.90;15.07;;;1.20;97.30;;;;;;4898258;29;20554;-72
2021/01/03 17:37:08;;;;;;;30.07;13.97;;;1.20;97.30;;;;;;4897506;29;20443;-71
2021/01/03 17:39:43;;;;;;;33.03;14.30;;;1.30;97.30;;;;;;4897205;29;20904;-73
2021/01/03 17:42:11;;;;;;;26.63;13.30;;;1.20;97.30;;;;;;4896737;29;20452;-72
2021/01/03 17:44:43;;;;;;;30.70;14.50;;;1.20;97.30;;;;;;4898496;29;20469;-73
2021/01/03 17:47:49;;;;;;;31.27;13.97;;;1.20;97.30;;;;;;4897175;29;20488;-74
2021/01/03 17:50:27;;;;;;;27.00;13.43;;;1.20;97.30;;;;;;4889373;29;20517;-73
2021/01/03 17:53:01;;;;;;;33.40;15.87;;;1.20;97.30;;;;;;4897921;29;20832;-73
2021/01/03 17:55:27;;;;;;;33.73;14.80;;;1.20;97.30;;;;;;4897733;29;20998;-73
2021/01/03 17:57:56;;;;;;;34.10;14.00;;;1.20;97.30;;;;;;4897863;29;20437;-73
2021/01/03 18:00:23;;;;;;;39.10;16.07;;;1.20;97.30;;;;;;4897572;29;20472;-73
2021/01/03 18:02:54;;;;;;;36.43;18.03;;;1.20;97.30;;;;;;4897244;29;20453;-78
2021/01/03 18:05:20;;;;;;;29.13;14.60;;;1.20;97.30;;;;;;4898100;29;20928;-76
2021/01/03 18:07:45;;;;;;;35.33;16.07;;;1.20;97.30;;;;;;4900925;29;20505;-79
2021/01/03 18:10:12;;;;;;;38.87;16.50;;;1.20;97.30;;;;;;4902172;29;20216;-81
2021/01/03 18:12:37;;;;;;;37.00;15.73;;;1.20;97.30;;;;;;4900053;29;20237;-76
2021/01/03 18:15:04;;;;;;;36.33;15.17;;;1.20;97.30;;;;;;4898152;29;20441;-78
2021/01/03 18:17:29;;;;;;;41.50;20.00;;;1.20;97.30;;;;;;4900503;29;20177;-78
2021/01/03 18:19:56;;;;;;;34.60;16.43;;;1.20;97.30;;;;;;4902617;29;20417;-78
2021/01/03 18:22:22;;;;;;;54.00;28.10;;;1.20;97.30;;;;;;4901559;29;20201;-75
2021/01/03 18:24:52;;;;;;;67.30;35.73;;;1.20;97.30;;;;;;4900999;29;20496;-72
2021/01/03 18:27:18;;;;;;;50.17;26.70;;;1.20;97.30;;;;;;4900711;29;20178;-69
2021/01/03 18:29:44;;;;;;;33.93;16.77;;;1.30;97.30;;;;;;4900292;29;20420;-70
2021/01/03 18:32:10;;;;;;;38.20;15.90;;;1.30;97.30;;;;;;4900237;29;20472;-69
2021/01/03 18:34:35;;;;;;;30.40;13.70;;;1.30;97.30;;;;;;4899821;29;20512;-71
2021/01/03 18:37:02;;;;;;;34.67;15.90;;;1.30;97.30;;;;;;4899889;29;20932;-69
2021/01/03 18:39:28;;;;;;;33.60;15.90;;;1.30;97.30;;;;;;4900554;29;20618;-70
2021/01/03 18:41:56;;;;;;;35.10;15.00;;;1.30;97.30;;;;;;4901341;29;20449;-69
2021/01/03 18:44:23;;;;;;;29.67;14.40;;;1.30;97.30;;;;;;4899811;29;20433;-69
2021/01/03 18:46:50;;;;;;;32.07;14.47;;;1.30;97.30;;;;;;4901222;29;20460;-69
2021/01/03 18:49:16;;;;;;;32.40;15.47;;;1.30;97.30;;;;;;4909698;29;20957;-69
2021/01/03 18:51:43;;;;;;;33.80;17.90;;;1.30;97.30;;;;;;4899371;29;20536;-69
2021/01/03 18:54:11;;;;;;;34.30;15.27;;;1.30;97.30;;;;;;4900880;29;20820;-69
2021/01/03 18:56:37;;;;;;;43.53;18.90;;;1.30;97.30;;;;;;4899632;29;20433;-69
2021/01/03 18:59:04;;;;;;;34.83;15.40;;;1.30;97.30;;;;;;4899593;29;20792;-69
2021/01/03 19:01:32;;;;;;;30.97;14.07;;;1.30;97.30;;;;;;4898926;29;20462;-70
2021/01/03 19:04:00;;;;;;;34.67;15.47;;;1.30;97.30;;;;;;4900276;29;20429;-69
2021/01/03 19:06:37;;;;;;;35.83;15.77;;;1.30;97.30;;;;;;4900545;29;20421;-71
2021/01/03 19:09:10;;;;;;;34.10;13.93;;;1.30;97.30;;;;;;4899148;29;20429;-71
2021/01/03 19:11:37;;;;;;;29.97;13.80;;;1.20;97.30;;;;;;4900225;29;20540;-71
2021/01/03 19:14:04;;;;;;;33.87;15.07;;;1.30;97.30;;;;;;4898677;29;20476;-71
2021/01/03 19:16:38;;;;;;;42.70;15.93;;;1.30;97.30;;;;;;4899178;29;20414;-71
2021/01/03 19:19:06;;;;;;;34.80;14.07;;;1.30;97.30;;;;;;4899288;29;20787;-71